createdAt,value
2022-09-10T00:01:29.913Z,49.87
2022-09-10T00:06:28.024Z,49.14
2022-09-10T00:11:25.223Z,49.37
2022-09-10T00:16:22.183Z,49.36
2022-09-10T00:21:20.478Z,48.96
2022-09-10T00:26:22.287Z,48.74
2022-09-10T00:31:19.501Z,48.66
2022-09-10T00:36:17.246Z,48.92
2022-09-10T00:41:14.773Z,49.15
2022-09-10T00:46:12.256Z,49.65
2022-09-10T00:51:09.004Z,49.79
2022-09-10T00:56:07.116Z,49.07
2022-09-10T01:01:04.010Z,49.30
2022-09-10T01:06:03.056Z,49.69
2022-09-10T01:11:06.379Z,50.31
2022-09-10T01:16:08.190Z,51.31
2022-09-10T01:21:10.862Z,51.19
2022-09-10T01:26:19.484Z,51.43
2022-09-10T01:31:23.879Z,52.48
2022-09-10T01:36:26.005Z,51.83
2022-09-10T01:41:23.361Z,51.48
2022-09-10T01:46:26.908Z,51.82
2022-09-10T01:51:28.282Z,51.65
2022-09-10T01:56:35.042Z,52.25
2022-09-10T02:01:35.921Z,51.78
2022-09-10T02:06:35.438Z,52.27
2022-09-10T02:11:42.830Z,51.83
2022-09-10T02:16:42.922Z,52.79
2022-09-10T02:21:39.953Z,51.99
2022-09-10T02:26:39.393Z,51.65
2022-09-10T02:31:39.020Z,51.78
2022-09-10T02:36:36.860Z,51.38
2022-09-10T02:41:34.609Z,51.43
2022-09-10T02:46:32.821Z,51.24
2022-09-10T02:51:30.131Z,50.60
2022-09-10T02:56:29.210Z,51.41
2022-09-10T03:01:28.019Z,50.43
2022-09-10T03:06:31.507Z,50.51
2022-09-10T03:11:28.285Z,51.42
2022-09-10T03:16:28.384Z,51.90
2022-09-10T03:21:25.561Z,53.47
2022-09-10T03:26:27.992Z,53.39
2022-09-10T03:31:26.536Z,53.77
2022-09-10T03:36:24.157Z,53.66
2022-09-10T03:41:21.011Z,52.77
2022-09-10T03:46:18.007Z,53.05
2022-09-10T03:51:16.975Z,52.52
2022-09-10T03:56:19.381Z,52.42
2022-09-10T04:01:16.407Z,51.55
2022-09-10T04:06:16.428Z,52.48
2022-09-10T04:11:13.568Z,53.13
2022-09-10T04:16:11.497Z,52.48
2022-09-10T04:21:09.335Z,52.46
2022-09-10T04:26:11.399Z,53.18
2022-09-10T04:31:08.576Z,54.22
2022-09-10T04:36:09.503Z,54.15
2022-09-10T04:41:10.036Z,52.76
2022-09-10T04:46:07.531Z,52.95
2022-09-10T04:51:16.916Z,52.97
2022-09-10T04:56:22.436Z,53.28
2022-09-10T05:01:20.013Z,53.65
2022-09-10T05:06:22.639Z,53.70
2022-09-10T05:11:19.703Z,53.77
2022-09-10T05:16:16.991Z,53.75
2022-09-10T05:21:14.039Z,53.62
2022-09-10T05:26:13.620Z,53.52
2022-09-10T05:31:12.343Z,53.45
2022-09-10T05:36:10.270Z,54.20
2022-09-10T05:41:09.939Z,54.22
2022-09-10T05:46:09.894Z,53.98
2022-09-10T05:51:07.825Z,53.69
2022-09-10T05:56:07.331Z,53.21
2022-09-10T06:01:05.872Z,52.82
2022-09-10T06:06:06.354Z,52.84
2022-09-10T06:11:06.847Z,53.50
2022-09-10T06:16:12.045Z,53.62
2022-09-10T06:21:12.342Z,53.40
2022-09-10T06:26:12.444Z,53.27
2022-09-10T06:31:14.999Z,53.59
2022-09-10T06:36:13.247Z,54.06
2022-09-10T06:41:12.403Z,53.94
2022-09-10T06:47:01.648Z,54.42
2022-09-10T06:51:39.882Z,53.83
2022-09-10T06:56:39.036Z,53.40
2022-09-10T07:01:37.358Z,53.10
2022-09-10T07:06:35.238Z,52.51
2022-09-10T07:11:41.699Z,52.38
2022-09-10T07:16:41.623Z,51.86
2022-09-10T07:21:38.948Z,51.35
2022-09-10T07:26:38.984Z,51.27
2022-09-10T07:31:37.683Z,50.81
2022-09-10T07:36:48.292Z,50.35
2022-09-10T07:41:46.039Z,49.25
2022-09-10T07:46:46.389Z,48.54
2022-09-10T07:51:45.223Z,47.61
2022-09-10T07:56:55.099Z,47.27
2022-09-10T08:01:53.201Z,46.93
2022-09-10T08:06:51.100Z,47.01
2022-09-10T08:11:47.963Z,46.67
2022-09-10T08:16:46.894Z,47.17
2022-09-10T08:21:44.782Z,47.08
2022-09-10T08:26:45.487Z,46.67
2022-09-10T08:31:42.592Z,46.20
2022-09-10T08:36:48.629Z,45.60
2022-09-10T08:41:51.815Z,45.44
2022-09-10T08:46:55.049Z,45.08
2022-09-10T08:51:57.205Z,44.01
2022-09-10T08:56:57.849Z,44.88
2022-09-10T09:01:58.753Z,45.00
2022-09-10T09:07:00.458Z,44.16
2022-09-10T09:12:02.273Z,44.03
2022-09-10T09:17:17.474Z,44.04
2022-09-10T09:22:19.753Z,43.04
2022-09-10T09:27:20.548Z,43.66
2022-09-10T09:32:23.177Z,42.71
2022-09-10T09:37:23.530Z,42.87
2022-09-10T09:42:23.518Z,42.40
2022-09-10T09:47:20.948Z,41.70
2022-09-10T09:52:21.691Z,41.93
2022-09-10T09:57:19.955Z,41.91
2022-09-10T10:02:19.456Z,41.79
2022-09-10T10:07:24.933Z,41.85
2022-09-10T10:12:22.681Z,42.03
2022-09-10T10:17:37.116Z,41.87
2022-09-10T10:22:34.591Z,41.62
2022-09-10T10:27:34.652Z,41.43
2022-09-10T10:32:34.467Z,41.21
2022-09-10T10:37:38.834Z,41.15
2022-09-10T10:42:38.934Z,41.42
2022-09-10T10:47:43.101Z,41.25
2022-09-10T10:52:46.129Z,41.36
2022-09-10T10:57:50.261Z,41.13
2022-09-10T11:02:52.570Z,41.04
2022-09-10T11:07:52.579Z,41.00
2022-09-10T11:12:52.429Z,41.32
2022-09-10T11:17:52.682Z,41.85
2022-09-10T11:22:51.623Z,42.04
2022-09-10T11:27:51.458Z,41.56
2022-09-10T11:32:54.162Z,41.39
2022-09-10T11:37:54.686Z,41.39
2022-09-10T11:42:52.892Z,41.38
2022-09-10T11:48:08.763Z,41.03
2022-09-10T11:53:08.942Z,40.50
2022-09-10T11:58:20.542Z,41.08
2022-09-10T12:03:37.450Z,40.99
2022-09-10T12:08:40.729Z,41.15
2022-09-10T12:13:39.176Z,40.78
2022-09-10T12:18:42.891Z,40.79
2022-09-10T12:23:42.978Z,40.56
2022-09-10T12:28:57.550Z,40.28
2022-09-10T12:34:11.890Z,40.05
2022-09-10T12:39:21.974Z,40.30
2022-09-10T12:44:44.345Z,40.02
2022-09-10T12:49:46.238Z,39.93
2022-09-10T12:54:48.869Z,40.33
2022-09-10T13:00:03.101Z,40.28
2022-09-10T13:05:09.883Z,40.40
2022-09-10T13:10:18.502Z,40.57
2022-09-10T13:15:22.196Z,40.14
2022-09-10T13:20:32.586Z,40.49
2022-09-10T13:25:43.741Z,39.98
2022-09-10T13:30:43.090Z,39.68
2022-09-10T13:36:04.011Z,39.10
2022-09-10T13:41:15.788Z,38.45
2022-09-10T13:46:21.775Z,39.33
2022-09-10T13:51:30.508Z,39.79
2022-09-10T13:56:33.609Z,38.86
2022-09-10T14:01:49.490Z,39.10
2022-09-10T14:06:47.053Z,39.97
2022-09-10T14:11:46.661Z,40.36
2022-09-10T14:16:44.930Z,40.56
2022-09-10T14:21:43.141Z,40.38
2022-09-10T14:26:40.638Z,40.24
2022-09-10T14:31:37.783Z,40.35
2022-09-10T14:36:36.237Z,40.65
2022-09-10T14:41:33.715Z,41.25
2022-09-10T14:46:48.280Z,41.30
2022-09-10T14:51:45.171Z,41.32
2022-09-10T14:56:43.735Z,41.51
2022-09-10T15:01:42.318Z,41.31
2022-09-10T15:06:40.443Z,41.47
2022-09-10T15:11:39.792Z,41.61
2022-09-10T15:16:37.031Z,41.50
2022-09-10T15:21:34.301Z,41.68
2022-09-10T15:26:32.072Z,41.72
2022-09-10T15:31:32.637Z,41.81
2022-09-10T15:36:29.661Z,41.62
2022-09-10T15:41:26.685Z,41.51
2022-09-10T15:46:24.114Z,41.27
2022-09-10T15:51:22.489Z,41.08
2022-09-10T15:56:20.312Z,41.22
2022-09-10T16:01:17.571Z,40.99
2022-09-10T16:06:15.375Z,40.98
2022-09-10T16:11:13.368Z,41.00
2022-09-10T16:16:15.075Z,40.88
2022-09-10T16:21:13.348Z,42.21
2022-09-10T16:26:15.183Z,42.39
2022-09-10T16:31:13.181Z,43.11
2022-09-10T16:36:10.411Z,43.55
2022-09-10T16:41:07.413Z,44.31
2022-09-10T16:46:06.233Z,44.10
2022-09-10T16:51:03.447Z,44.04
2022-09-10T16:56:04.080Z,44.23
2022-09-10T17:01:00.740Z,44.45
2022-09-10T17:05:58.529Z,45.76
2022-09-10T17:10:55.189Z,45.68
2022-09-10T17:15:53.198Z,45.97
2022-09-10T17:20:52.430Z,45.53
2022-09-10T17:25:49.709Z,45.81
2022-09-10T17:30:46.325Z,46.51
2022-09-10T17:36:31.208Z,48.12
2022-09-10T17:41:29.288Z,52.22
2022-09-10T17:46:26.688Z,52.53
2022-09-10T17:51:25.606Z,51.98
2022-09-10T17:56:23.697Z,54.45
2022-09-10T18:01:23.551Z,58.45
2022-09-10T18:06:20.946Z,60.79
2022-09-10T18:11:20.675Z,62.12
2022-09-10T18:16:20.967Z,63.29
2022-09-10T18:21:19.155Z,64.11
2022-09-10T18:26:16.941Z,66.25
2022-09-10T18:31:13.985Z,63.84
2022-09-10T18:36:12.397Z,67.54
2022-09-10T18:41:17.452Z,70.93
2022-09-10T18:46:14.674Z,71.56
2022-09-10T18:51:18.200Z,73.15
2022-09-10T18:56:15.953Z,74.21
2022-09-10T19:01:16.833Z,73.60
2022-09-10T19:06:15.415Z,74.07
2022-09-10T19:11:16.684Z,74.44
2022-09-10T19:16:13.482Z,74.17
2022-09-10T19:21:10.820Z,72.13
2022-09-10T19:26:09.331Z,72.52
2022-09-10T19:31:06.991Z,72.86
2022-09-10T19:36:04.463Z,74.64
2022-09-10T19:41:08.528Z,75.04
2022-09-10T19:46:06.142Z,76.34
2022-09-10T19:51:04.588Z,79.57
2022-09-10T19:56:04.839Z,81.64
2022-09-10T20:01:07.556Z,82.08
2022-09-10T20:06:04.808Z,82.92
2022-09-10T20:11:01.807Z,83.58
2022-09-10T20:15:59.780Z,83.89
2022-09-10T20:21:07.613Z,83.87
2022-09-10T20:26:10.044Z,85.54
2022-09-10T20:31:08.393Z,84.34
2022-09-10T20:36:10.328Z,84.29
2022-09-10T20:41:07.377Z,84.76
2022-09-10T20:46:04.533Z,85.23
2022-09-10T20:51:01.304Z,86.17
2022-09-10T20:56:02.904Z,87.12
2022-09-10T21:01:04.527Z,87.14
2022-09-10T21:06:01.783Z,86.72
2022-09-10T21:11:02.537Z,87.19
2022-09-10T21:16:09.653Z,86.69
2022-09-10T21:21:07.553Z,85.86
2022-09-10T21:26:04.941Z,86.54
2022-09-10T21:31:02.230Z,86.12
2022-09-10T21:36:00.031Z,85.74
2022-09-10T21:40:58.476Z,85.67
2022-09-10T21:45:55.879Z,85.24
2022-09-10T21:50:57.073Z,85.02
2022-09-10T21:55:53.978Z,85.38
2022-09-10T22:00:50.608Z,86.06
2022-09-10T22:05:47.829Z,86.35
2022-09-10T22:10:45.351Z,85.40
2022-09-10T22:15:42.185Z,84.06
2022-09-10T22:20:39.067Z,83.85
2022-09-10T22:25:38.524Z,82.93
2022-09-10T22:30:36.247Z,81.62
2022-09-10T22:35:33.991Z,82.47
2022-09-10T22:40:30.650Z,83.34
2022-09-10T22:45:28.070Z,82.75
2022-09-10T22:50:27.618Z,81.97
2022-09-10T22:55:24.229Z,81.69
2022-09-10T23:00:27.009Z,81.60
2022-09-10T23:05:24.445Z,83.10
2022-09-10T23:10:21.179Z,82.62
2022-09-10T23:15:23.256Z,82.96
2022-09-10T23:20:20.153Z,82.63
2022-09-10T23:25:25.677Z,83.13
2022-09-10T23:30:22.531Z,83.72
2022-09-10T23:35:19.304Z,83.18
2022-09-10T23:40:16.023Z,82.48
2022-09-10T23:45:14.480Z,82.45
2022-09-10T23:50:11.132Z,82.44
2022-09-10T23:55:08.176Z,81.82
